^^
Grace C. Lehan Memorial Weather Station Historical Data
Daily Summary for August 10, 2022 Units:  Metric    English   Both
Daily Weekly Monthly Yearly
  High: Low: Average:
Temperature: 25.9 °C 25.2 °C 25.5 °C
Dew Point: 18.9 °C 18.5 °C 18.7 °C
Humidity: 68% 64% 66%
Wind Speed: 3.7km/h 0km/h 0.6km/h
Wind Gust: 11.3km/h - -
Wind- - NW
Pressure: 1014.1 hPa 1013.4 hPa -
Precipitation: 0 mm    
 
 
Tabular Data for August 10, 2022
Time Temperature Dew Point Pressure Wind Wind Speed Wind Gust Humidity Rainfall Rate (Hourly) solar
00:09 25.9 °C 18.6 °C 1013.8 hPa Calm     64% 0 mm 0 W/m2
00:14 25.9 °C 18.6 °C 1013.8 hPa NW 0.2 km/h 4.8 km/h 64% 0 mm 0 W/m2
00:19 25.8 °C 18.6 °C 1013.4 hPa NW 1.3 km/h 9.7 km/h 64% 0 mm 0 W/m2
00:24 25.8 °C 18.5 °C 1013.4 hPa NW 0.8 km/h 9.7 km/h 64% 0 mm 0 W/m2
00:29 25.8 °C 18.6 °C 1013.4 hPa NW 1 km/h 9.7 km/h 64.4% 0 mm 0 W/m2
00:34 25.7 °C 18.7 °C 1013.8 hPa NW 1 km/h 9.7 km/h 65% 0 mm 0 W/m2
00:39 25.7 °C 18.6 °C 1013.8 hPa Calm   8 km/h 65% 0 mm 0 W/m2
00:44 25.7 °C 18.6 °C 1013.8 hPa NW 1 km/h 9.7 km/h 65% 0 mm 0 W/m2
00:49 25.6 °C 18.7 °C 1013.8 hPa Calm   9.7 km/h 65.5% 0 mm 0 W/m2
00:54 25.6 °C 18.8 °C 1013.8 hPa NW 0.6 km/h 9.7 km/h 66% 0 mm 0 W/m2
00:59 25.6 °C 18.7 °C 1013.8 hPa NW 0.3 km/h 9.7 km/h 65.8% 0 mm 0 W/m2
01:04 25.5 °C 18.7 °C 1013.8 hPa Calm   9.7 km/h 66.1% 0 mm 0 W/m2
01:09 25.5 °C 18.8 °C 1013.8 hPa Calm   3.2 km/h 66.7% 0 mm 0 W/m2
01:14 25.5 °C 18.8 °C 1013.8 hPa Calm   3.2 km/h 66.5% 0 mm 0 W/m2
01:19 25.4 °C 18.7 °C 1013.8 hPa North 0.5 km/h 4.8 km/h 66.3% 0 mm 0 W/m2
01:24 25.4 °C 18.7 °C 1014.1 hPa Calm   4.8 km/h 66.2% 0 mm 0 W/m2
01:29 25.4 °C 18.8 °C 1014.1 hPa Calm   4.8 km/h 67% 0 mm 0 W/m2
01:34 25.3 °C 18.8 °C 1013.8 hPa NNE 0.2 km/h 4.8 km/h 67% 0 mm 0 W/m2
01:39 25.3 °C 18.8 °C 1013.8 hPa North 1.1 km/h 6.4 km/h 67% 0 mm 0 W/m2
01:44 25.3 °C 18.9 °C 1013.8 hPa NNW 0.5 km/h 6.4 km/h 67.7% 0 mm 0 W/m2
01:49 25.3 °C 18.7 °C 1013.8 hPa NW 3.7 km/h 11.3 km/h 67.2% 0 mm 0 W/m2
01:54 25.2 °C 18.9 °C 1013.8 hPa NNW 0.8 km/h 11.3 km/h 68% 0 mm 0 W/m2
01:59 25.2 °C 18.8 °C 1014.1 hPa NNW 0.5 km/h 11.3 km/h 68% 0 mm 0 W/m2
02:03 25.2 °C 18.8 °C 1014.1 hPa NW 2.3 km/h 11.3 km/h 68% 0 mm 0 W/m2
Hartford County Weather
Compliments of Weather Underground - 2 mb